createdAt,value
2023-05-23T00:00:14.366Z,15.75
2023-05-23T00:02:41.185Z,16.02
2023-05-23T00:05:08.092Z,14.35
2023-05-23T00:07:34.873Z,13.40
2023-05-23T00:10:01.460Z,12.85
2023-05-23T00:12:29.360Z,12.02
2023-05-23T00:14:55.978Z,11.93
2023-05-23T00:17:25.427Z,11.63
2023-05-23T00:19:52.821Z,10.77
2023-05-23T00:22:19.606Z,10.85
2023-05-23T00:24:46.313Z,11.77
2023-05-23T00:27:13.023Z,11.30
2023-05-23T00:29:39.668Z,12.27
2023-05-23T00:32:06.269Z,12.95
2023-05-23T00:34:32.941Z,11.68
2023-05-23T00:36:59.733Z,13.25
2023-05-23T00:39:26.333Z,12.60
2023-05-23T00:41:53.267Z,12.40
2023-05-23T00:44:21.236Z,11.95
2023-05-23T00:46:53.502Z,11.13
2023-05-23T00:49:20.945Z,11.20
2023-05-23T00:51:49.551Z,11.07
2023-05-23T00:54:21.948Z,11.02
2023-05-23T00:56:48.725Z,10.50
2023-05-23T00:59:15.894Z,11.07
2023-05-23T01:01:44.209Z,10.25
2023-05-23T01:04:11.708Z,10.35
2023-05-23T01:06:38.418Z,10.20
2023-05-23T01:09:05.249Z,10.57
2023-05-23T01:12:03.957Z,9.75
2023-05-23T01:14:43.553Z,9.77
2023-05-23T01:17:48.801Z,10.15
2023-05-23T01:20:39.907Z,9.77
2023-05-23T01:23:36.071Z,9.73
2023-05-23T01:26:32.471Z,9.82
2023-05-23T01:29:10.106Z,10.20
2023-05-23T01:31:45.333Z,9.60
2023-05-23T01:34:13.838Z,10.07
2023-05-23T01:36:43.132Z,10.25
2023-05-23T01:39:10.591Z,10.30
2023-05-23T01:41:37.244Z,10.75
2023-05-23T01:44:04.359Z,11.32
2023-05-23T01:46:32.768Z,11.18
2023-05-23T01:49:00.828Z,10.45
2023-05-23T01:51:28.923Z,10.77
2023-05-23T01:53:56.072Z,10.25
2023-05-23T01:56:22.965Z,11.00
2023-05-23T01:58:49.721Z,10.63
2023-05-23T02:01:16.385Z,10.13
2023-05-23T02:03:43.117Z,10.57
2023-05-23T02:06:10.713Z,10.82
2023-05-23T02:08:37.419Z,10.75
2023-05-23T02:11:04.065Z,10.98
2023-05-23T02:13:30.880Z,12.75
2023-05-23T02:15:57.490Z,11.82
2023-05-23T02:18:26.194Z,13.50
2023-05-23T02:20:52.857Z,12.57
2023-05-23T02:23:19.433Z,14.32
2023-05-23T02:25:46.056Z,12.70
2023-05-23T02:28:12.975Z,14.27
2023-05-23T02:30:39.957Z,14.63
2023-05-23T02:33:07.946Z,16.13
2023-05-23T02:35:34.783Z,16.52
2023-05-23T02:38:01.456Z,16.95
2023-05-23T02:40:28.075Z,18.05
2023-05-23T02:42:57.189Z,17.88
2023-05-23T02:45:24.255Z,18.35
2023-05-23T02:47:51.240Z,19.45
2023-05-23T02:50:17.882Z,18.20
2023-05-23T02:52:44.613Z,19.95
2023-05-23T02:55:11.304Z,20.42
2023-05-23T02:57:37.887Z,21.80
2023-05-23T03:00:05.043Z,23.10
2023-05-23T03:02:31.724Z,23.17
2023-05-23T03:04:58.516Z,22.75
2023-05-23T03:07:28.697Z,22.70
2023-05-23T03:09:56.178Z,26.27
2023-05-23T03:12:22.940Z,24.63
2023-05-23T03:14:49.732Z,27.52
2023-05-23T03:17:16.581Z,27.48
2023-05-23T03:19:43.419Z,28.17
2023-05-23T03:22:10.314Z,28.92
2023-05-23T03:24:37.078Z,27.10
2023-05-23T03:27:04.273Z,27.55
2023-05-23T03:29:31.079Z,26.92
2023-05-23T03:31:57.933Z,28.15
2023-05-23T03:34:26.603Z,28.52
2023-05-23T03:36:53.519Z,29.42
2023-05-23T03:39:20.382Z,28.40
2023-05-23T03:41:47.446Z,28.88
2023-05-23T03:44:14.839Z,28.83
2023-05-23T03:46:41.777Z,29.20
2023-05-23T03:49:08.676Z,28.13
2023-05-23T03:51:35.515Z,30.13
2023-05-23T03:54:02.458Z,28.70
2023-05-23T03:56:29.366Z,25.65
2023-05-23T03:58:56.101Z,24.15
2023-05-23T04:01:23.080Z,27.13
2023-05-23T04:03:50.027Z,26.13
2023-05-23T04:06:17.399Z,23.50
2023-05-23T04:08:44.208Z,22.80
2023-05-23T04:11:11.099Z,19.63
2023-05-23T04:13:38.253Z,22.15
2023-05-23T04:16:06.031Z,21.60
2023-05-23T04:18:39.490Z,23.88
2023-05-23T04:21:06.734Z,25.02
2023-05-23T04:23:43.783Z,27.83
2023-05-23T04:26:16.081Z,27.40
2023-05-23T04:28:49.052Z,27.35
2023-05-23T04:31:19.114Z,26.60
2023-05-23T04:34:05.274Z,26.25
2023-05-23T04:36:45.050Z,22.48
2023-05-23T04:39:16.017Z,21.95
2023-05-23T04:42:16.080Z,20.73
2023-05-23T04:44:45.893Z,17.92
2023-05-23T04:47:12.634Z,18.67
2023-05-23T04:50:00.679Z,17.92
2023-05-23T04:52:55.545Z,18.52
2023-05-23T04:55:22.321Z,18.40
2023-05-23T04:58:08.044Z,17.55
2023-05-23T05:00:35.954Z,20.13
2023-05-23T05:03:02.685Z,20.55
2023-05-23T05:05:55.237Z,21.08
2023-05-23T05:08:21.903Z,22.73
2023-05-23T05:10:59.988Z,22.80
2023-05-23T05:13:26.739Z,25.20
2023-05-23T05:15:56.142Z,25.58
2023-05-23T05:18:57.984Z,24.75
2023-05-23T05:21:55.234Z,24.30
2023-05-23T05:24:25.298Z,22.55
2023-05-23T05:26:52.130Z,21.42
2023-05-23T05:29:18.780Z,20.23
2023-05-23T05:31:45.485Z,18.35
2023-05-23T05:34:12.694Z,18.15
2023-05-23T05:36:45.818Z,16.70
2023-05-23T05:39:13.873Z,15.13
2023-05-23T05:41:40.618Z,14.32
2023-05-23T05:44:08.415Z,14.73
2023-05-23T05:46:35.118Z,14.05
2023-05-23T05:49:01.761Z,14.43
2023-05-23T05:51:28.745Z,13.68
2023-05-23T05:53:55.342Z,11.98
2023-05-23T05:56:22.668Z,10.52
2023-05-23T05:58:49.500Z,10.93
2023-05-23T06:01:16.202Z,10.90
2023-05-23T06:03:43.185Z,10.70
2023-05-23T06:06:10.468Z,10.20
2023-05-23T06:08:37.186Z,10.18
2023-05-23T06:11:03.911Z,8.88
2023-05-23T06:13:30.703Z,8.38
2023-05-23T06:15:58.416Z,7.55
2023-05-23T06:18:25.305Z,7.30
2023-05-23T06:20:52.118Z,7.25
2023-05-23T06:23:18.835Z,7.43
2023-05-23T06:25:45.432Z,6.38
2023-05-23T06:28:12.046Z,6.30
2023-05-23T06:30:39.348Z,6.20
2023-05-23T06:33:12.414Z,6.05
2023-05-23T06:35:50.503Z,5.45
2023-05-23T06:38:17.874Z,5.07
2023-05-23T06:40:44.617Z,5.57
2023-05-23T06:43:11.219Z,5.53
2023-05-23T06:45:38.290Z,6.15
2023-05-23T06:48:05.557Z,5.72
2023-05-23T06:50:32.333Z,5.50
2023-05-23T06:52:58.932Z,5.40
2023-05-23T06:55:25.743Z,4.78
2023-05-23T06:57:52.502Z,4.55
2023-05-23T07:00:19.781Z,4.50
2023-05-23T07:02:48.622Z,5.53
2023-05-23T07:05:16.160Z,4.10
2023-05-23T07:07:43.360Z,4.40
2023-05-23T07:10:10.379Z,5.28
2023-05-23T07:12:36.991Z,3.28
2023-05-23T07:15:03.828Z,3.67
2023-05-23T07:17:30.613Z,3.17
2023-05-23T07:19:57.243Z,3.42
2023-05-23T07:22:24.029Z,3.50
2023-05-23T07:24:50.661Z,4.00
2023-05-23T07:27:17.264Z,3.25
2023-05-23T07:29:43.935Z,3.60
2023-05-23T07:32:10.607Z,3.28
2023-05-23T07:34:37.225Z,3.28
2023-05-23T07:37:03.930Z,2.90
2023-05-23T07:39:30.582Z,3.10
2023-05-23T07:41:57.289Z,3.78
2023-05-23T07:44:25.311Z,3.42
2023-05-23T07:46:52.238Z,2.90
2023-05-23T07:49:19.307Z,3.22
2023-05-23T07:51:46.005Z,2.97
2023-05-23T07:54:14.510Z,2.83
2023-05-23T07:56:43.487Z,3.35
2023-05-23T07:59:10.093Z,2.75
2023-05-23T08:01:37.378Z,3.38
2023-05-23T08:04:04.346Z,3.47
2023-05-23T08:06:31.842Z,2.97
2023-05-23T08:08:58.497Z,4.00
2023-05-23T08:11:25.251Z,4.13
2023-05-23T08:13:51.857Z,4.60
2023-05-23T08:16:18.580Z,4.07
2023-05-23T08:18:45.419Z,4.53
2023-05-23T08:21:12.076Z,4.60
2023-05-23T08:23:38.744Z,3.78
2023-05-23T08:26:05.507Z,4.25
2023-05-23T08:28:34.581Z,3.92
2023-05-23T08:31:01.323Z,4.20
2023-05-23T08:33:27.923Z,3.95
2023-05-23T08:35:54.859Z,3.30
2023-05-23T08:38:22.093Z,3.35
2023-05-23T08:40:52.167Z,3.25
2023-05-23T08:43:19.677Z,3.40
2023-05-23T08:45:47.995Z,3.65
2023-05-23T08:48:17.349Z,3.72
2023-05-23T08:50:48.948Z,3.38
2023-05-23T08:53:20.322Z,3.60
2023-05-23T08:55:48.786Z,3.25
2023-05-23T08:58:16.049Z,3.00
2023-05-23T09:00:43.706Z,3.08
2023-05-23T09:03:12.293Z,2.85
2023-05-23T09:05:39.013Z,3.00
2023-05-23T09:08:05.900Z,3.33
2023-05-23T09:10:33.058Z,3.03
2023-05-23T09:12:59.898Z,2.65
2023-05-23T09:15:27.275Z,3.15
2023-05-23T09:17:53.955Z,3.17
2023-05-23T09:20:20.623Z,3.53
2023-05-23T09:22:48.866Z,2.80
2023-05-23T09:25:16.257Z,3.08
2023-05-23T09:27:45.720Z,2.70
2023-05-23T09:30:14.771Z,2.53
2023-05-23T09:32:42.232Z,2.78
2023-05-23T09:35:13.721Z,2.78
2023-05-23T09:37:45.746Z,2.60
2023-05-23T09:40:16.350Z,2.90
2023-05-23T09:42:45.411Z,2.65
2023-05-23T09:45:17.034Z,2.58
2023-05-23T09:47:54.285Z,3.20
2023-05-23T09:50:21.542Z,2.92
2023-05-23T09:52:48.460Z,2.05
2023-05-23T09:55:15.272Z,2.40
2023-05-23T09:57:43.697Z,3.08
2023-05-23T10:00:12.425Z,2.78
2023-05-23T10:03:14.739Z,2.85
2023-05-23T10:05:49.500Z,2.75
2023-05-23T10:08:29.891Z,2.42
2023-05-23T10:10:56.468Z,2.65
2023-05-23T10:13:26.838Z,2.28
2023-05-23T10:16:03.132Z,2.80
2023-05-23T10:18:34.648Z,2.45
2023-05-23T10:21:15.670Z,2.83
2023-05-23T10:23:44.481Z,2.42
2023-05-23T10:26:11.680Z,2.33
2023-05-23T10:28:39.753Z,2.88
2023-05-23T10:31:06.530Z,2.78
2023-05-23T10:33:40.756Z,2.72
2023-05-23T10:36:18.365Z,2.80
2023-05-23T10:39:22.471Z,1.90
2023-05-23T10:41:53.162Z,2.80
2023-05-23T10:44:32.572Z,2.40
2023-05-23T10:47:04.382Z,2.72
2023-05-23T10:49:41.646Z,2.85
2023-05-23T10:52:10.941Z,3.20
2023-05-23T10:54:46.601Z,3.10
2023-05-23T10:57:16.841Z,2.80
2023-05-23T10:59:44.948Z,2.70
2023-05-23T11:02:16.555Z,2.85
2023-05-23T11:04:43.711Z,3.30
2023-05-23T11:07:30.741Z,2.67
2023-05-23T11:10:11.452Z,3.03
2023-05-23T11:12:40.776Z,2.88
2023-05-23T11:15:22.590Z,2.80
2023-05-23T11:17:50.661Z,3.00
2023-05-23T11:20:23.251Z,2.67
2023-05-23T11:23:03.528Z,2.72
2023-05-23T11:25:44.016Z,2.25
2023-05-23T11:28:12.101Z,2.90
2023-05-23T11:30:39.633Z,2.47
2023-05-23T11:33:17.031Z,2.85
2023-05-23T11:35:45.962Z,3.40
2023-05-23T11:38:13.913Z,3.03
2023-05-23T11:40:42.770Z,2.22
2023-05-23T11:43:14.806Z,2.72
2023-05-23T11:45:43.108Z,3.17
2023-05-23T11:48:14.513Z,3.25
2023-05-23T11:50:46.203Z,3.53
2023-05-23T11:53:13.780Z,2.88
2023-05-23T11:55:41.795Z,3.35
2023-05-23T11:58:10.632Z,2.92
2023-05-23T12:00:44.121Z,2.70
2023-05-23T12:03:11.797Z,2.47
2023-05-23T12:05:40.564Z,2.67
2023-05-23T12:08:07.471Z,2.70
2023-05-23T12:10:34.676Z,2.40
2023-05-23T12:13:01.654Z,2.88
2023-05-23T12:15:30.998Z,2.80
2023-05-23T12:17:58.252Z,2.17
2023-05-23T12:20:26.608Z,2.25
2023-05-23T12:22:54.594Z,2.28
2023-05-23T12:25:23.304Z,2.38
2023-05-23T12:27:49.998Z,2.85
2023-05-23T12:30:17.727Z,2.90
2023-05-23T12:32:53.053Z,2.80
2023-05-23T12:35:20.208Z,2.90
2023-05-23T12:37:47.419Z,2.60
2023-05-23T12:40:18.888Z,2.05
2023-05-23T12:42:53.268Z,2.80
2023-05-23T12:45:22.359Z,2.75
2023-05-23T12:47:51.353Z,3.22
2023-05-23T12:50:19.780Z,2.78
2023-05-23T12:52:46.560Z,2.38
2023-05-23T12:55:13.744Z,2.22
2023-05-23T12:57:40.365Z,3.10
2023-05-23T13:00:08.253Z,2.53
2023-05-23T13:02:35.181Z,3.20
2023-05-23T13:05:01.870Z,2.60
2023-05-23T13:07:29.736Z,2.97
2023-05-23T13:09:57.036Z,2.50
2023-05-23T13:12:24.505Z,2.60
2023-05-23T13:14:51.343Z,3.22
2023-05-23T13:17:18.483Z,2.47
2023-05-23T13:19:46.369Z,2.78
2023-05-23T13:22:13.252Z,3.28
2023-05-23T13:24:40.862Z,2.78
2023-05-23T13:27:07.947Z,2.70
2023-05-23T13:29:34.668Z,2.50
2023-05-23T13:32:01.382Z,3.47
2023-05-23T13:34:28.682Z,2.78
2023-05-23T13:36:55.652Z,2.72
2023-05-23T13:39:22.810Z,2.15
2023-05-23T13:41:50.618Z,2.83
2023-05-23T13:44:17.331Z,2.65
2023-05-23T13:46:44.306Z,3.17
2023-05-23T13:49:11.065Z,2.53
2023-05-23T13:51:37.942Z,2.80
2023-05-23T13:54:06.033Z,2.50
2023-05-23T13:56:33.629Z,2.92
2023-05-23T13:59:01.656Z,2.80
2023-05-23T14:01:28.609Z,2.50
2023-05-23T14:03:55.668Z,3.00
2023-05-23T14:06:22.446Z,2.65
2023-05-23T14:08:49.088Z,2.38
2023-05-23T14:11:15.759Z,2.60
2023-05-23T14:13:42.643Z,2.65
2023-05-23T14:16:09.354Z,2.97
2023-05-23T14:18:35.971Z,2.58
2023-05-23T14:21:02.689Z,2.78
2023-05-23T14:23:29.403Z,2.92
2023-05-23T14:25:56.143Z,2.50
2023-05-23T14:28:22.752Z,2.08
2023-05-23T14:30:49.398Z,1.83
2023-05-23T14:33:16.187Z,2.03
2023-05-23T14:35:43.306Z,2.28
2023-05-23T14:38:10.284Z,3.22
2023-05-23T14:40:36.901Z,2.22
2023-05-23T14:43:03.553Z,2.70
2023-05-23T14:45:30.211Z,2.80
2023-05-23T14:47:56.887Z,2.78
2023-05-23T14:50:23.847Z,2.30
2023-05-23T14:52:50.605Z,2.13
2023-05-23T14:55:17.326Z,2.55
2023-05-23T14:57:43.965Z,2.63
2023-05-23T15:00:11.619Z,2.67
2023-05-23T15:02:38.401Z,2.25
2023-05-23T15:05:05.750Z,2.42
2023-05-23T15:07:32.456Z,2.85
2023-05-23T15:09:59.052Z,2.28
2023-05-23T15:12:25.773Z,2.35
2023-05-23T15:14:52.387Z,2.53
2023-05-23T15:17:20.351Z,2.15
2023-05-23T15:19:47.109Z,2.08
2023-05-23T15:22:33.567Z,2.95
2023-05-23T15:25:00.624Z,2.58
2023-05-23T15:27:27.287Z,2.95
2023-05-23T15:29:54.061Z,2.55
2023-05-23T15:32:20.761Z,2.33
2023-05-23T15:34:47.463Z,2.13
2023-05-23T15:37:14.108Z,2.03
2023-05-23T15:39:40.717Z,2.10
2023-05-23T15:42:07.595Z,2.25
2023-05-23T15:44:34.265Z,2.80
2023-05-23T15:47:00.995Z,2.65
2023-05-23T15:49:27.716Z,3.17
2023-05-23T15:51:55.192Z,2.90
2023-05-23T15:54:22.331Z,2.80
2023-05-23T15:56:49.032Z,3.65
2023-05-23T15:59:15.636Z,2.60
2023-05-23T16:01:42.294Z,2.50
2023-05-23T16:04:08.974Z,2.60
2023-05-23T16:06:36.546Z,2.63
2023-05-23T16:09:03.604Z,2.38
2023-05-23T16:11:30.511Z,1.98
2023-05-23T16:13:57.168Z,1.98
2023-05-23T16:16:23.867Z,2.10
2023-05-23T16:18:50.609Z,2.00
2023-05-23T16:21:20.490Z,2.15
2023-05-23T16:23:48.469Z,2.30
2023-05-23T16:26:16.129Z,2.42
2023-05-23T16:28:43.603Z,2.28
2023-05-23T16:31:14.526Z,2.20
2023-05-23T16:33:41.350Z,2.38
2023-05-23T16:36:08.189Z,2.30
2023-05-23T16:38:34.911Z,2.10
2023-05-23T16:41:01.661Z,2.85
2023-05-23T16:43:28.267Z,2.15
2023-05-23T16:45:55.369Z,1.90
2023-05-23T16:48:22.288Z,2.50
2023-05-23T16:50:49.285Z,2.22
2023-05-23T16:53:16.094Z,2.40
2023-05-23T16:55:43.021Z,1.65
2023-05-23T16:58:10.058Z,3.15
2023-05-23T17:00:36.835Z,2.83
2023-05-23T17:03:03.868Z,2.35
2023-05-23T17:05:30.954Z,1.85
2023-05-23T17:07:57.748Z,3.00
2023-05-23T17:10:24.379Z,2.60
2023-05-23T17:12:51.198Z,2.25
2023-05-23T17:15:17.874Z,2.70
2023-05-23T17:17:44.658Z,2.17
2023-05-23T17:20:11.590Z,2.20
2023-05-23T17:22:38.487Z,1.90
2023-05-23T17:25:06.593Z,2.20
2023-05-23T17:27:33.519Z,2.53
2023-05-23T17:30:00.256Z,2.15
2023-05-23T17:32:27.886Z,2.30
2023-05-23T17:34:54.730Z,2.72
2023-05-23T17:37:21.647Z,2.13
2023-05-23T17:39:50.760Z,2.40
2023-05-23T17:42:17.942Z,2.10
2023-05-23T17:44:44.574Z,3.13
2023-05-23T17:47:11.338Z,2.47
2023-05-23T17:49:38.771Z,2.30
2023-05-23T17:52:06.859Z,2.13
2023-05-23T17:54:33.541Z,2.75
2023-05-23T17:57:00.132Z,2.80
2023-05-23T17:59:27.913Z,2.38
2023-05-23T18:01:54.654Z,2.30
2023-05-23T18:04:22.112Z,2.75
2023-05-23T18:06:48.830Z,2.70
2023-05-23T18:09:16.462Z,2.35
2023-05-23T18:11:43.136Z,2.47
2023-05-23T18:14:09.778Z,2.30
2023-05-23T18:16:36.661Z,3.33
2023-05-23T18:19:03.353Z,2.58
2023-05-23T18:21:30.145Z,2.90
2023-05-23T18:23:57.778Z,2.65
2023-05-23T18:26:24.461Z,2.28
2023-05-23T18:28:51.202Z,3.15
2023-05-23T18:31:17.803Z,2.08
2023-05-23T18:33:44.517Z,2.60
2023-05-23T18:36:11.527Z,2.97
2023-05-23T18:38:38.234Z,2.40
2023-05-23T18:41:04.999Z,3.40
2023-05-23T18:43:31.651Z,3.40
2023-05-23T18:45:58.317Z,2.80
2023-05-23T18:48:24.935Z,3.10
2023-05-23T18:50:51.778Z,3.58
2023-05-23T18:53:19.149Z,2.80
2023-05-23T18:55:45.868Z,3.22
2023-05-23T18:58:12.636Z,3.03
2023-05-23T19:00:39.392Z,2.67
2023-05-23T19:03:06.320Z,2.88
2023-05-23T19:05:33.079Z,3.85
2023-05-23T19:07:59.694Z,2.80
2023-05-23T19:10:26.469Z,3.03
2023-05-23T19:12:53.082Z,2.58
2023-05-23T19:15:20.380Z,2.92
2023-05-23T19:17:47.372Z,3.30
2023-05-23T19:20:18.377Z,3.65
2023-05-23T19:22:51.803Z,3.50
2023-05-23T19:25:19.754Z,3.33
2023-05-23T19:27:46.441Z,2.63
2023-05-23T19:30:13.391Z,2.92
2023-05-23T19:32:40.168Z,3.50
2023-05-23T19:35:08.171Z,3.30
2023-05-23T19:37:34.916Z,3.00
2023-05-23T19:40:01.827Z,2.78
2023-05-23T19:42:28.548Z,3.30
2023-05-23T19:44:55.209Z,3.20
2023-05-23T19:47:21.966Z,3.80
2023-05-23T19:49:48.627Z,3.92
2023-05-23T19:52:15.211Z,3.22
2023-05-23T19:54:41.962Z,3.88
2023-05-23T19:57:08.693Z,3.42
2023-05-23T19:59:35.302Z,3.30
2023-05-23T20:02:01.893Z,3.35
2023-05-23T20:04:28.626Z,3.33
2023-05-23T20:06:56.050Z,3.63
2023-05-23T20:09:23.640Z,3.58
2023-05-23T20:11:50.264Z,3.88
2023-05-23T20:14:16.853Z,3.35
2023-05-23T20:16:43.686Z,4.80
2023-05-23T20:19:10.630Z,3.40
2023-05-23T20:21:37.312Z,3.22
2023-05-23T20:24:04.002Z,3.65
2023-05-23T20:26:30.757Z,3.97
2023-05-23T20:28:57.428Z,3.60
2023-05-23T20:31:24.231Z,3.53
2023-05-23T20:33:52.279Z,3.30
2023-05-23T20:36:20.869Z,3.92
2023-05-23T20:38:47.843Z,4.60
2023-05-23T20:41:14.511Z,3.58
2023-05-23T20:43:41.253Z,4.78
2023-05-23T20:46:11.095Z,4.53
2023-05-23T20:48:37.775Z,3.45
2023-05-23T20:51:05.836Z,3.42
2023-05-23T20:53:32.770Z,4.20
2023-05-23T20:56:00.050Z,5.35
2023-05-23T20:58:27.055Z,5.30
2023-05-23T21:00:53.802Z,4.57
2023-05-23T21:03:20.730Z,3.85
2023-05-23T21:05:47.584Z,4.65
2023-05-23T21:08:14.406Z,3.50
2023-05-23T21:10:41.485Z,4.35
2023-05-23T21:13:08.462Z,4.05
2023-05-23T21:15:35.179Z,4.50
2023-05-23T21:18:01.934Z,5.07
2023-05-23T21:20:37.703Z,4.30
2023-05-23T21:23:04.305Z,3.97
2023-05-23T21:25:31.069Z,4.03
2023-05-23T21:27:57.647Z,4.18
2023-05-23T21:30:26.183Z,4.55
2023-05-23T21:32:53.110Z,4.60
2023-05-23T21:35:19.881Z,4.55
2023-05-23T21:37:46.586Z,3.80
2023-05-23T21:40:13.173Z,5.32
2023-05-23T21:42:39.772Z,4.60
2023-05-23T21:45:07.082Z,4.85
2023-05-23T21:47:33.744Z,4.35
2023-05-23T21:50:00.541Z,4.63
2023-05-23T21:52:27.182Z,4.60
2023-05-23T21:54:53.745Z,5.05
2023-05-23T21:57:20.397Z,5.22
2023-05-23T21:59:47.057Z,5.10
2023-05-23T22:02:13.936Z,4.65
2023-05-23T22:04:40.605Z,5.55
2023-05-23T22:07:08.536Z,5.47
2023-05-23T22:09:35.173Z,5.53
2023-05-23T22:12:01.871Z,5.43
2023-05-23T22:14:28.798Z,5.50
2023-05-23T22:16:56.215Z,5.65
2023-05-23T22:19:26.167Z,4.93
2023-05-23T22:21:53.220Z,5.63
2023-05-23T22:24:19.842Z,5.53
2023-05-23T22:26:46.603Z,4.82
2023-05-23T22:29:13.259Z,5.20
2023-05-23T22:31:39.864Z,5.97
2023-05-23T22:34:06.478Z,5.78
2023-05-23T22:36:33.479Z,5.28
2023-05-23T22:39:05.156Z,5.90
2023-05-23T22:41:32.265Z,6.50
2023-05-23T22:43:58.943Z,5.63
2023-05-23T22:46:25.610Z,6.35
2023-05-23T22:48:52.533Z,5.47
2023-05-23T22:51:19.782Z,5.75
2023-05-23T22:53:46.511Z,6.07
2023-05-23T22:56:13.430Z,5.32
2023-05-23T22:58:40.056Z,6.15
2023-05-23T23:01:06.777Z,6.18
2023-05-23T23:03:33.463Z,6.55
2023-05-23T23:06:00.196Z,6.38
2023-05-23T23:08:27.301Z,5.95
2023-05-23T23:10:53.924Z,6.53
2023-05-23T23:13:20.586Z,7.07
2023-05-23T23:15:49.651Z,7.13
2023-05-23T23:18:16.647Z,5.65
2023-05-23T23:20:43.404Z,6.25
2023-05-23T23:23:10.355Z,6.38
2023-05-23T23:25:37.929Z,6.20
2023-05-23T23:28:04.606Z,5.93
2023-05-23T23:30:31.755Z,6.90
2023-05-23T23:32:58.495Z,5.82
2023-05-23T23:35:25.243Z,6.93
2023-05-23T23:37:52.024Z,6.60
2023-05-23T23:40:18.721Z,5.28
2023-05-23T23:42:45.490Z,7.38
2023-05-23T23:45:12.208Z,6.57
2023-05-23T23:47:38.908Z,6.55
2023-05-23T23:50:06.722Z,6.03
2023-05-23T23:52:33.496Z,7.03
2023-05-23T23:55:00.480Z,6.20
2023-05-23T23:57:27.137Z,7.03
2023-05-23T23:59:53.864Z,7.38
